sensor_id;sensor_type;location;lat;lon;timestamp;noise_LAeq;noise_LA_min;noise_LA_max;noise_LA01;noise_LA95
37162;Laerm;68342;52.598;13.450;2023-06-26T00:00:01;37.15;31.37;48.07;;
37162;Laerm;68342;52.598;13.450;2023-06-26T00:02:28;41.20;31.03;52.66;;
37162;Laerm;68342;52.598;13.450;2023-06-26T00:04:57;37.64;31.02;49.50;;
37162;Laerm;68342;52.598;13.450;2023-06-26T00:07:22;35.89;30.94;49.85;;
37162;Laerm;68342;52.598;13.450;2023-06-26T00:09:48;38.12;31.58;51.97;;
37162;Laerm;68342;52.598;13.450;2023-06-26T00:12:13;42.44;32.04;55.90;;
37162;Laerm;68342;52.598;13.450;2023-06-26T00:14:38;39.37;33.41;50.80;;
37162;Laerm;68342;52.598;13.450;2023-06-26T00:17:04;42.62;33.90;52.25;;
37162;Laerm;68342;52.598;13.450;2023-06-26T00:19:29;38.68;31.50;48.18;;
37162;Laerm;68342;52.598;13.450;2023-06-26T00:21:55;39.31;31.61;51.22;;
37162;Laerm;68342;52.598;13.450;2023-06-26T00:24:20;39.43;32.44;50.64;;
37162;Laerm;68342;52.598;13.450;2023-06-26T00:26:46;36.80;31.05;49.18;;
37162;Laerm;68342;52.598;13.450;2023-06-26T00:29:11;36.78;30.94;47.87;;
37162;Laerm;68342;52.598;13.450;2023-06-26T00:31:37;35.77;30.50;50.93;;
37162;Laerm;68342;52.598;13.450;2023-06-26T00:34:03;37.27;31.44;54.37;;
37162;Laerm;68342;52.598;13.450;2023-06-26T00:36:31;36.43;31.12;49.73;;
37162;Laerm;68342;52.598;13.450;2023-06-26T00:38:56;35.99;30.98;49.82;;
37162;Laerm;68342;52.598;13.450;2023-06-26T00:41:21;36.77;30.84;51.24;;
37162;Laerm;68342;52.598;13.450;2023-06-26T00:43:47;36.16;30.48;51.56;;
37162;Laerm;68342;52.598;13.450;2023-06-26T00:46:12;34.87;30.41;48.87;;
37162;Laerm;68342;52.598;13.450;2023-06-26T00:48:38;35.05;30.26;56.08;;
37162;Laerm;68342;52.598;13.450;2023-06-26T00:51:04;36.17;30.41;52.06;;
37162;Laerm;68342;52.598;13.450;2023-06-26T00:53:30;35.30;30.42;45.79;;
37162;Laerm;68342;52.598;13.450;2023-06-26T00:55:55;35.69;30.49;48.27;;
37162;Laerm;68342;52.598;13.450;2023-06-26T00:58:24;36.03;30.69;48.79;;
37162;Laerm;68342;52.598;13.450;2023-06-26T01:00:53;38.67;30.86;52.07;;
37162;Laerm;68342;52.598;13.450;2023-06-26T01:03:27;35.87;31.14;52.24;;
37162;Laerm;68342;52.598;13.450;2023-06-26T01:05:53;39.78;31.82;51.98;;
37162;Laerm;68342;52.598;13.450;2023-06-26T01:08:19;36.35;31.21;49.10;;
37162;Laerm;68342;52.598;13.450;2023-06-26T01:10:45;34.94;30.62;55.82;;
37162;Laerm;68342;52.598;13.450;2023-06-26T01:15:53;35.16;30.20;54.09;;
37162;Laerm;68342;52.598;13.450;2023-06-26T01:18:18;36.91;31.02;49.16;;
37162;Laerm;68342;52.598;13.450;2023-06-26T01:20:44;37.08;30.18;46.58;;
37162;Laerm;68342;52.598;13.450;2023-06-26T01:23:22;37.98;31.49;50.93;;
37162;Laerm;68342;52.598;13.450;2023-06-26T01:28:33;37.33;31.26;53.83;;
37162;Laerm;68342;52.598;13.450;2023-06-26T01:30:59;36.85;31.21;49.07;;
37162;Laerm;68342;52.598;13.450;2023-06-26T01:33:25;37.17;31.38;53.72;;
37162;Laerm;68342;52.598;13.450;2023-06-26T01:35:50;36.56;31.36;49.12;;
37162;Laerm;68342;52.598;13.450;2023-06-26T01:38:16;36.19;31.34;51.43;;
37162;Laerm;68342;52.598;13.450;2023-06-26T01:40:42;38.39;33.25;49.08;;
37162;Laerm;68342;52.598;13.450;2023-06-26T01:43:11;37.45;31.61;50.12;;
37162;Laerm;68342;52.598;13.450;2023-06-26T01:45:40;38.23;32.74;57.58;;
37162;Laerm;68342;52.598;13.450;2023-06-26T01:48:05;38.53;33.14;48.46;;
37162;Laerm;68342;52.598;13.450;2023-06-26T01:50:31;38.43;32.83;54.28;;
37162;Laerm;68342;52.598;13.450;2023-06-26T01:53:05;38.36;32.53;52.65;;
37162;Laerm;68342;52.598;13.450;2023-06-26T01:58:01;43.11;34.63;53.24;;
37162;Laerm;68342;52.598;13.450;2023-06-26T02:00:26;38.69;32.66;50.22;;
37162;Laerm;68342;52.598;13.450;2023-06-26T02:02:52;40.30;33.46;50.78;;
37162;Laerm;68342;52.598;13.450;2023-06-26T02:05:18;39.25;32.75;50.84;;
37162;Laerm;68342;52.598;13.450;2023-06-26T02:07:43;39.91;33.46;51.47;;
37162;Laerm;68342;52.598;13.450;2023-06-26T02:10:09;40.52;34.34;49.29;;
37162;Laerm;68342;52.598;13.450;2023-06-26T02:12:34;44.66;34.09;52.41;;
37162;Laerm;68342;52.598;13.450;2023-06-26T02:15:00;39.86;33.36;55.14;;
37162;Laerm;68342;52.598;13.450;2023-06-26T02:17:26;39.30;33.82;48.94;;
37162;Laerm;68342;52.598;13.450;2023-06-26T02:19:51;39.92;34.99;48.50;;
37162;Laerm;68342;52.598;13.450;2023-06-26T02:22:16;40.85;34.83;48.56;;
37162;Laerm;68342;52.598;13.450;2023-06-26T02:24:42;38.03;33.42;49.43;;
37162;Laerm;68342;52.598;13.450;2023-06-26T02:27:08;41.40;35.12;48.56;;
37162;Laerm;68342;52.598;13.450;2023-06-26T02:29:33;39.34;33.60;49.31;;
37162;Laerm;68342;52.598;13.450;2023-06-26T02:31:58;39.49;34.31;50.16;;
37162;Laerm;68342;52.598;13.450;2023-06-26T02:34:23;39.95;34.32;51.74;;
37162;Laerm;68342;52.598;13.450;2023-06-26T02:36:48;37.91;34.10;48.96;;
37162;Laerm;68342;52.598;13.450;2023-06-26T02:39:14;39.73;35.41;48.28;;
37162;Laerm;68342;52.598;13.450;2023-06-26T02:41:39;39.81;35.35;48.92;;
37162;Laerm;68342;52.598;13.450;2023-06-26T02:44:05;40.73;35.34;51.86;;
37162;Laerm;68342;52.598;13.450;2023-06-26T02:46:31;40.49;36.47;47.01;;
37162;Laerm;68342;52.598;13.450;2023-06-26T02:48:56;41.63;37.57;52.73;;
37162;Laerm;68342;52.598;13.450;2023-06-26T02:51:21;41.58;36.75;50.31;;
37162;Laerm;68342;52.598;13.450;2023-06-26T02:53:47;42.43;37.12;51.46;;
37162;Laerm;68342;52.598;13.450;2023-06-26T02:56:12;41.74;36.75;55.11;;
37162;Laerm;68342;52.598;13.450;2023-06-26T02:58:37;41.96;36.87;51.97;;
37162;Laerm;68342;52.598;13.450;2023-06-26T03:01:02;43.29;36.52;53.00;;
37162;Laerm;68342;52.598;13.450;2023-06-26T03:03:27;40.72;36.88;47.72;;
37162;Laerm;68342;52.598;13.450;2023-06-26T03:05:53;41.76;37.72;54.89;;
37162;Laerm;68342;52.598;13.450;2023-06-26T03:08:18;40.85;36.51;48.67;;
37162;Laerm;68342;52.598;13.450;2023-06-26T03:10:43;41.68;36.61;58.11;;
37162;Laerm;68342;52.598;13.450;2023-06-26T03:13:08;41.96;37.03;54.56;;
37162;Laerm;68342;52.598;13.450;2023-06-26T03:15:34;42.43;36.82;56.47;;
37162;Laerm;68342;52.598;13.450;2023-06-26T03:17:59;43.49;37.88;58.30;;
37162;Laerm;68342;52.598;13.450;2023-06-26T03:20:24;46.05;38.15;59.21;;
37162;Laerm;68342;52.598;13.450;2023-06-26T03:22:50;44.06;38.47;56.29;;
37162;Laerm;68342;52.598;13.450;2023-06-26T03:25:15;44.47;37.94;62.21;;
37162;Laerm;68342;52.598;13.450;2023-06-26T03:27:40;44.31;37.59;59.17;;
37162;Laerm;68342;52.598;13.450;2023-06-26T03:30:05;50.20;39.41;69.82;;
37162;Laerm;68342;52.598;13.450;2023-06-26T03:32:31;46.83;39.91;67.36;;
37162;Laerm;68342;52.598;13.450;2023-06-26T03:34:56;44.47;39.57;55.16;;
37162;Laerm;68342;52.598;13.450;2023-06-26T03:37:21;44.23;38.73;55.33;;
37162;Laerm;68342;52.598;13.450;2023-06-26T03:39:47;42.95;38.75;55.07;;
37162;Laerm;68342;52.598;13.450;2023-06-26T03:42:12;44.32;39.57;56.10;;
37162;Laerm;68342;52.598;13.450;2023-06-26T03:44:37;45.09;40.28;58.58;;
37162;Laerm;68342;52.598;13.450;2023-06-26T03:47:03;45.50;39.62;60.70;;
37162;Laerm;68342;52.598;13.450;2023-06-26T03:49:28;45.03;39.84;60.84;;
37162;Laerm;68342;52.598;13.450;2023-06-26T03:51:53;45.87;40.33;63.77;;
37162;Laerm;68342;52.598;13.450;2023-06-26T03:54:18;48.77;38.94;67.46;;
37162;Laerm;68342;52.598;13.450;2023-06-26T03:56:44;51.01;39.96;67.90;;
37162;Laerm;68342;52.598;13.450;2023-06-26T03:59:09;53.90;41.24;69.61;;
37162;Laerm;68342;52.598;13.450;2023-06-26T04:01:35;51.27;39.80;69.09;;
37162;Laerm;68342;52.598;13.450;2023-06-26T04:04:01;50.06;40.09;68.08;;
37162;Laerm;68342;52.598;13.450;2023-06-26T04:06:26;49.16;39.28;67.11;;
37162;Laerm;68342;52.598;13.450;2023-06-26T04:08:51;46.32;39.62;61.29;;
37162;Laerm;68342;52.598;13.450;2023-06-26T04:11:16;51.86;39.95;67.81;;
37162;Laerm;68342;52.598;13.450;2023-06-26T04:13:42;52.50;41.34;66.42;;
37162;Laerm;68342;52.598;13.450;2023-06-26T04:16:07;45.67;40.27;61.28;;
37162;Laerm;68342;52.598;13.450;2023-06-26T04:18:32;50.00;39.73;69.46;;
37162;Laerm;68342;52.598;13.450;2023-06-26T04:21:07;50.72;41.19;68.31;;
37162;Laerm;68342;52.598;13.450;2023-06-26T04:23:33;44.78;40.22;56.75;;
37162;Laerm;68342;52.598;13.450;2023-06-26T04:25:59;46.52;39.37;66.22;;
37162;Laerm;68342;52.598;13.450;2023-06-26T04:28:24;50.90;39.26;68.23;;
37162;Laerm;68342;52.598;13.450;2023-06-26T04:30:49;52.19;39.99;70.39;;
37162;Laerm;68342;52.598;13.450;2023-06-26T04:33:15;49.19;39.29;70.59;;
37162;Laerm;68342;52.598;13.450;2023-06-26T04:35:40;46.23;39.99;64.28;;
37162;Laerm;68342;52.598;13.450;2023-06-26T04:38:05;51.26;39.45;71.29;;
37162;Laerm;68342;52.598;13.450;2023-06-26T04:40:31;46.63;38.04;62.80;;
37162;Laerm;68342;52.598;13.450;2023-06-26T04:42:56;50.89;38.47;68.76;;
37162;Laerm;68342;52.598;13.450;2023-06-26T04:45:21;46.62;37.83;65.92;;
37162;Laerm;68342;52.598;13.450;2023-06-26T04:47:46;45.69;38.68;62.73;;
37162;Laerm;68342;52.598;13.450;2023-06-26T04:50:12;43.67;38.42;61.66;;
37162;Laerm;68342;52.598;13.450;2023-06-26T04:52:37;50.09;37.61;81.81;;
37162;Laerm;68342;52.598;13.450;2023-06-26T04:55:02;47.37;39.02;64.07;;
37162;Laerm;68342;52.598;13.450;2023-06-26T04:57:28;47.66;38.92;65.50;;
37162;Laerm;68342;52.598;13.450;2023-06-26T04:59:53;46.79;38.22;62.74;;
37162;Laerm;68342;52.598;13.450;2023-06-26T05:02:18;45.68;39.21;58.87;;
37162;Laerm;68342;52.598;13.450;2023-06-26T05:04:43;44.86;38.96;54.05;;
37162;Laerm;68342;52.598;13.450;2023-06-26T05:07:09;49.30;38.72;64.97;;
37162;Laerm;68342;52.598;13.450;2023-06-26T05:09:34;45.21;38.40;60.75;;
37162;Laerm;68342;52.598;13.450;2023-06-26T05:12:00;53.42;37.48;77.73;;
37162;Laerm;68342;52.598;13.450;2023-06-26T05:14:27;49.07;37.86;66.23;;
37162;Laerm;68342;52.598;13.450;2023-06-26T05:16:52;47.58;37.20;64.61;;
37162;Laerm;68342;52.598;13.450;2023-06-26T05:19:17;42.08;37.52;57.76;;
37162;Laerm;68342;52.598;13.450;2023-06-26T05:21:43;43.11;36.87;58.66;;
37162;Laerm;68342;52.598;13.450;2023-06-26T05:24:08;47.62;37.23;65.24;;
37162;Laerm;68342;52.598;13.450;2023-06-26T05:26:34;47.01;36.29;65.04;;
37162;Laerm;68342;52.598;13.450;2023-06-26T05:28:59;42.51;37.27;56.58;;
37162;Laerm;68342;52.598;13.450;2023-06-26T05:31:24;42.98;36.01;60.52;;
37162;Laerm;68342;52.598;13.450;2023-06-26T05:33:50;45.54;38.17;64.00;;
37162;Laerm;68342;52.598;13.450;2023-06-26T05:36:17;45.79;36.07;66.98;;
37162;Laerm;68342;52.598;13.450;2023-06-26T05:38:43;48.86;36.60;66.83;;
37162;Laerm;68342;52.598;13.450;2023-06-26T05:41:09;47.48;35.76;64.96;;
37162;Laerm;68342;52.598;13.450;2023-06-26T05:43:34;43.02;34.98;56.70;;
37162;Laerm;68342;52.598;13.450;2023-06-26T05:45:59;44.12;34.63;56.82;;
37162;Laerm;68342;52.598;13.450;2023-06-26T05:48:24;41.60;35.19;53.32;;
37162;Laerm;68342;52.598;13.450;2023-06-26T05:50:50;54.04;35.10;71.40;;
37162;Laerm;68342;52.598;13.450;2023-06-26T05:53:15;44.37;35.22;63.89;;
37162;Laerm;68342;52.598;13.450;2023-06-26T05:55:40;42.58;35.19;60.56;;
37162;Laerm;68342;52.598;13.450;2023-06-26T05:58:07;47.50;35.80;63.31;;
37162;Laerm;68342;52.598;13.450;2023-06-26T06:00:34;52.28;35.63;68.31;;
37162;Laerm;68342;52.598;13.450;2023-06-26T06:03:00;44.55;35.18;64.89;;
37162;Laerm;68342;52.598;13.450;2023-06-26T06:05:25;51.33;35.61;70.34;;
37162;Laerm;68342;52.598;13.450;2023-06-26T06:07:50;47.65;35.56;68.01;;
37162;Laerm;68342;52.598;13.450;2023-06-26T06:10:16;45.65;35.55;63.64;;
37162;Laerm;68342;52.598;13.450;2023-06-26T06:12:41;45.34;34.95;63.51;;
37162;Laerm;68342;52.598;13.450;2023-06-26T06:15:06;43.95;36.09;60.89;;
37162;Laerm;68342;52.598;13.450;2023-06-26T06:17:32;45.27;37.16;64.63;;
37162;Laerm;68342;52.598;13.450;2023-06-26T06:19:57;47.90;38.68;68.45;;
37162;Laerm;68342;52.598;13.450;2023-06-26T06:22:22;45.46;38.03;64.91;;
37162;Laerm;68342;52.598;13.450;2023-06-26T06:24:51;46.70;37.80;63.49;;
37162;Laerm;68342;52.598;13.450;2023-06-26T06:27:16;49.25;38.40;67.13;;
37162;Laerm;68342;52.598;13.450;2023-06-26T06:29:42;48.41;39.17;62.35;;
37162;Laerm;68342;52.598;13.450;2023-06-26T06:32:07;49.58;39.33;65.79;;
37162;Laerm;68342;52.598;13.450;2023-06-26T06:34:32;45.35;39.39;60.14;;
37162;Laerm;68342;52.598;13.450;2023-06-26T06:36:57;47.90;38.96;63.22;;
37162;Laerm;68342;52.598;13.450;2023-06-26T06:39:23;48.12;38.11;62.64;;
37162;Laerm;68342;52.598;13.450;2023-06-26T06:41:48;46.17;38.58;61.60;;
37162;Laerm;68342;52.598;13.450;2023-06-26T06:44:13;46.37;38.21;61.16;;
37162;Laerm;68342;52.598;13.450;2023-06-26T06:46:38;45.83;37.98;56.58;;
37162;Laerm;68342;52.598;13.450;2023-06-26T06:49:04;46.85;37.44;56.02;;
37162;Laerm;68342;52.598;13.450;2023-06-26T06:51:29;45.45;37.77;64.38;;
37162;Laerm;68342;52.598;13.450;2023-06-26T06:53:54;45.17;37.22;64.58;;
37162;Laerm;68342;52.598;13.450;2023-06-26T06:56:19;46.86;37.79;63.47;;
37162;Laerm;68342;52.598;13.450;2023-06-26T06:58:45;44.74;36.92;64.30;;
37162;Laerm;68342;52.598;13.450;2023-06-26T07:01:11;46.69;38.87;61.15;;
37162;Laerm;68342;52.598;13.450;2023-06-26T07:03:36;44.39;37.64;59.59;;
37162;Laerm;68342;52.598;13.450;2023-06-26T07:06:02;44.27;37.62;63.47;;
37162;Laerm;68342;52.598;13.450;2023-06-26T07:08:28;49.93;38.65;69.29;;
37162;Laerm;68342;52.598;13.450;2023-06-26T07:10:54;43.75;38.40;57.27;;
37162;Laerm;68342;52.598;13.450;2023-06-26T07:13:19;43.58;38.32;56.53;;
37162;Laerm;68342;52.598;13.450;2023-06-26T07:15:45;45.30;39.01;64.53;;
37162;Laerm;68342;52.598;13.450;2023-06-26T07:18:10;45.68;37.39;66.04;;
37162;Laerm;68342;52.598;13.450;2023-06-26T07:20:35;45.35;37.35;61.59;;
37162;Laerm;68342;52.598;13.450;2023-06-26T07:23:01;48.77;38.25;62.82;;
37162;Laerm;68342;52.598;13.450;2023-06-26T07:25:26;52.43;39.46;69.86;;
37162;Laerm;68342;52.598;13.450;2023-06-26T07:27:51;54.15;39.82;70.02;;
37162;Laerm;68342;52.598;13.450;2023-06-26T07:30:16;51.46;37.93;68.78;;
37162;Laerm;68342;52.598;13.450;2023-06-26T07:32:44;47.17;39.95;61.03;;
37162;Laerm;68342;52.598;13.450;2023-06-26T07:35:09;47.50;38.86;65.16;;
37162;Laerm;68342;52.598;13.450;2023-06-26T07:37:35;46.02;38.74;59.87;;
37162;Laerm;68342;52.598;13.450;2023-06-26T07:40:00;44.77;38.15;59.97;;
37162;Laerm;68342;52.598;13.450;2023-06-26T07:42:25;45.75;37.71;65.06;;
37162;Laerm;68342;52.598;13.450;2023-06-26T07:44:51;44.02;38.74;62.20;;
37162;Laerm;68342;52.598;13.450;2023-06-26T07:47:16;44.12;38.89;58.76;;
37162;Laerm;68342;52.598;13.450;2023-06-26T07:49:41;47.57;38.73;69.51;;
37162;Laerm;68342;52.598;13.450;2023-06-26T07:52:07;45.35;38.77;58.60;;
37162;Laerm;68342;52.598;13.450;2023-06-26T07:54:35;43.75;38.49;58.21;;
37162;Laerm;68342;52.598;13.450;2023-06-26T07:57:01;43.29;37.76;56.27;;
37162;Laerm;68342;52.598;13.450;2023-06-26T07:59:27;44.13;38.54;58.74;;
37162;Laerm;68342;52.598;13.450;2023-06-26T08:01:53;45.13;37.93;65.33;;
37162;Laerm;68342;52.598;13.450;2023-06-26T08:04:19;42.25;36.29;52.32;;
37162;Laerm;68342;52.598;13.450;2023-06-26T08:06:47;44.14;37.63;55.26;;
37162;Laerm;68342;52.598;13.450;2023-06-26T08:09:12;44.36;39.14;57.81;;
37162;Laerm;68342;52.598;13.450;2023-06-26T08:11:38;43.47;38.20;56.99;;
37162;Laerm;68342;52.598;13.450;2023-06-26T08:14:03;44.04;38.75;60.77;;
37162;Laerm;68342;52.598;13.450;2023-06-26T08:16:28;47.43;38.79;64.55;;
37162;Laerm;68342;52.598;13.450;2023-06-26T08:18:53;49.26;40.21;64.68;;
37162;Laerm;68342;52.598;13.450;2023-06-26T08:21:18;43.71;38.73;52.37;;
37162;Laerm;68342;52.598;13.450;2023-06-26T08:23:44;44.39;37.94;56.07;;
37162;Laerm;68342;52.598;13.450;2023-06-26T08:26:09;44.59;38.57;59.76;;
37162;Laerm;68342;52.598;13.450;2023-06-26T08:28:34;44.61;38.66;65.03;;
37162;Laerm;68342;52.598;13.450;2023-06-26T08:30:59;44.50;38.79;56.33;;
37162;Laerm;68342;52.598;13.450;2023-06-26T08:33:25;48.33;38.21;61.95;;
37162;Laerm;68342;52.598;13.450;2023-06-26T08:35:50;48.96;39.08;63.11;;
37162;Laerm;68342;52.598;13.450;2023-06-26T08:38:15;47.57;39.14;67.50;;
37162;Laerm;68342;52.598;13.450;2023-06-26T08:40:41;43.61;37.79;57.88;;
37162;Laerm;68342;52.598;13.450;2023-06-26T08:43:06;47.95;39.13;58.03;;
37162;Laerm;68342;52.598;13.450;2023-06-26T08:45:31;47.03;38.86;63.24;;
37162;Laerm;68342;52.598;13.450;2023-06-26T08:47:57;44.15;37.80;59.98;;
37162;Laerm;68342;52.598;13.450;2023-06-26T08:50:24;47.17;38.45;63.07;;
37162;Laerm;68342;52.598;13.450;2023-06-26T08:53:01;47.40;39.46;62.96;;
37162;Laerm;68342;52.598;13.450;2023-06-26T08:55:29;52.61;37.23;70.42;;
37162;Laerm;68342;52.598;13.450;2023-06-26T08:57:56;46.12;37.70;59.30;;
37162;Laerm;68342;52.598;13.450;2023-06-26T09:00:22;47.36;39.13;59.69;;
37162;Laerm;68342;52.598;13.450;2023-06-26T09:02:48;45.79;38.12;60.28;;
37162;Laerm;68342;52.598;13.450;2023-06-26T09:05:13;46.83;37.62;62.09;;
37162;Laerm;68342;52.598;13.450;2023-06-26T09:07:38;47.34;37.43;58.89;;
37162;Laerm;68342;52.598;13.450;2023-06-26T09:10:04;44.41;38.20;55.33;;
37162;Laerm;68342;52.598;13.450;2023-06-26T09:12:29;43.44;37.88;56.08;;
37162;Laerm;68342;52.598;13.450;2023-06-26T09:14:56;44.15;37.90;59.45;;
37162;Laerm;68342;52.598;13.450;2023-06-26T09:17:40;46.45;37.31;63.32;;
37162;Laerm;68342;52.598;13.450;2023-06-26T09:20:06;46.96;37.42;60.79;;
37162;Laerm;68342;52.598;13.450;2023-06-26T09:22:33;48.02;36.96;65.77;;
37162;Laerm;68342;52.598;13.450;2023-06-26T09:24:58;48.63;37.38;64.01;;
37162;Laerm;68342;52.598;13.450;2023-06-26T09:27:24;48.73;38.40;64.66;;
37162;Laerm;68342;52.598;13.450;2023-06-26T09:29:50;45.58;38.14;58.84;;
37162;Laerm;68342;52.598;13.450;2023-06-26T09:32:15;46.37;36.73;58.57;;
37162;Laerm;68342;52.598;13.450;2023-06-26T09:34:41;48.35;37.43;64.26;;
37162;Laerm;68342;52.598;13.450;2023-06-26T09:37:06;45.57;37.59;61.55;;
37162;Laerm;68342;52.598;13.450;2023-06-26T09:39:32;44.02;36.68;61.69;;
37162;Laerm;68342;52.598;13.450;2023-06-26T09:41:57;42.73;37.36;57.51;;
37162;Laerm;68342;52.598;13.450;2023-06-26T09:44:22;44.18;36.70;57.35;;
37162;Laerm;68342;52.598;13.450;2023-06-26T09:46:48;44.94;37.50;60.99;;
37162;Laerm;68342;52.598;13.450;2023-06-26T09:49:13;46.70;38.13;61.83;;
37162;Laerm;68342;52.598;13.450;2023-06-26T09:51:39;49.11;38.31;63.54;;
37162;Laerm;68342;52.598;13.450;2023-06-26T09:54:05;43.81;36.48;60.14;;
37162;Laerm;68342;52.598;13.450;2023-06-26T09:56:31;45.84;36.37;58.67;;
37162;Laerm;68342;52.598;13.450;2023-06-26T09:58:57;47.73;37.13;60.33;;
37162;Laerm;68342;52.598;13.450;2023-06-26T10:01:26;48.78;40.07;60.73;;
37162;Laerm;68342;52.598;13.450;2023-06-26T10:03:52;46.27;38.33;63.02;;
37162;Laerm;68342;52.598;13.450;2023-06-26T10:06:36;43.26;37.37;56.19;;
37162;Laerm;68342;52.598;13.450;2023-06-26T10:09:02;42.46;37.09;55.95;;
37162;Laerm;68342;52.598;13.450;2023-06-26T10:11:41;43.61;37.09;62.27;;
37162;Laerm;68342;52.598;13.450;2023-06-26T10:14:10;43.06;37.46;57.96;;
37162;Laerm;68342;52.598;13.450;2023-06-26T10:16:36;41.54;38.05;58.43;;
37162;Laerm;68342;52.598;13.450;2023-06-26T10:19:05;45.49;39.31;61.46;;
37162;Laerm;68342;52.598;13.450;2023-06-26T10:21:31;49.00;37.76;63.50;;
37162;Laerm;68342;52.598;13.450;2023-06-26T10:23:59;47.35;39.86;58.98;;
37162;Laerm;68342;52.598;13.450;2023-06-26T10:26:25;47.61;38.05;58.68;;
37162;Laerm;68342;52.598;13.450;2023-06-26T10:28:52;44.69;36.64;58.60;;
37162;Laerm;68342;52.598;13.450;2023-06-26T10:31:22;42.73;36.85;57.58;;
37162;Laerm;68342;52.598;13.450;2023-06-26T10:33:49;41.23;36.79;52.80;;
37162;Laerm;68342;52.598;13.450;2023-06-26T10:36:15;41.46;36.88;57.74;;
37162;Laerm;68342;52.598;13.450;2023-06-26T10:38:48;45.48;36.94;74.40;;
37162;Laerm;68342;52.598;13.450;2023-06-26T10:41:13;42.24;37.11;56.76;;
37162;Laerm;68342;52.598;13.450;2023-06-26T10:43:40;42.78;36.78;52.75;;
37162;Laerm;68342;52.598;13.450;2023-06-26T10:46:09;44.41;37.86;57.07;;
37162;Laerm;68342;52.598;13.450;2023-06-26T10:48:44;45.20;39.65;60.10;;
37162;Laerm;68342;52.598;13.450;2023-06-26T10:51:19;44.01;39.72;53.47;;
37162;Laerm;68342;52.598;13.450;2023-06-26T10:53:49;43.87;39.18;65.70;;
37162;Laerm;68342;52.598;13.450;2023-06-26T10:56:15;42.41;38.06;54.70;;
37162;Laerm;68342;52.598;13.450;2023-06-26T10:58:41;43.38;37.00;56.70;;
37162;Laerm;68342;52.598;13.450;2023-06-26T11:01:24;44.05;38.32;57.15;;
37162;Laerm;68342;52.598;13.450;2023-06-26T11:06:26;48.25;40.14;62.48;;
37162;Laerm;68342;52.598;13.450;2023-06-26T11:08:53;49.73;39.00;62.02;;
37162;Laerm;68342;52.598;13.450;2023-06-26T11:11:19;49.36;37.05;63.87;;
37162;Laerm;68342;52.598;13.450;2023-06-26T11:13:45;46.08;36.18;61.20;;
37162;Laerm;68342;52.598;13.450;2023-06-26T11:16:14;53.86;36.19;70.02;;
37162;Laerm;68342;52.598;13.450;2023-06-26T11:18:40;44.37;38.83;58.94;;
37162;Laerm;68342;52.598;13.450;2023-06-26T11:21:06;47.28;37.66;63.21;;
37162;Laerm;68342;52.598;13.450;2023-06-26T11:23:31;48.09;38.03;64.40;;
37162;Laerm;68342;52.598;13.450;2023-06-26T11:25:57;48.71;36.04;66.24;;
37162;Laerm;68342;52.598;13.450;2023-06-26T11:28:22;57.30;36.32;75.02;;
37162;Laerm;68342;52.598;13.450;2023-06-26T11:30:49;45.32;38.50;54.92;;
37162;Laerm;68342;52.598;13.450;2023-06-26T11:33:14;45.64;38.74;56.47;;
37162;Laerm;68342;52.598;13.450;2023-06-26T11:35:39;49.71;37.83;72.19;;
37162;Laerm;68342;52.598;13.450;2023-06-26T11:38:04;44.45;37.54;61.44;;
37162;Laerm;68342;52.598;13.450;2023-06-26T11:40:33;46.01;36.43;60.82;;
37162;Laerm;68342;52.598;13.450;2023-06-26T11:43:03;44.68;36.49;56.04;;
37162;Laerm;68342;52.598;13.450;2023-06-26T11:45:29;43.42;37.67;59.44;;
37162;Laerm;68342;52.598;13.450;2023-06-26T11:47:55;47.34;37.95;61.58;;
37162;Laerm;68342;52.598;13.450;2023-06-26T11:50:21;45.20;38.52;59.22;;
37162;Laerm;68342;52.598;13.450;2023-06-26T11:52:52;45.43;38.72;58.28;;
37162;Laerm;68342;52.598;13.450;2023-06-26T11:55:17;50.67;38.11;70.58;;
37162;Laerm;68342;52.598;13.450;2023-06-26T11:57:47;59.38;38.04;75.36;;
37162;Laerm;68342;52.598;13.450;2023-06-26T12:00:13;47.06;37.88;65.14;;
37162;Laerm;68342;52.598;13.450;2023-06-26T12:02:39;43.62;38.97;52.08;;
37162;Laerm;68342;52.598;13.450;2023-06-26T12:05:04;44.12;37.75;58.31;;
37162;Laerm;68342;52.598;13.450;2023-06-26T12:07:30;46.99;39.20;58.14;;
37162;Laerm;68342;52.598;13.450;2023-06-26T12:09:56;44.84;39.16;56.48;;
37162;Laerm;68342;52.598;13.450;2023-06-26T12:12:23;45.45;40.63;51.42;;
37162;Laerm;68342;52.598;13.450;2023-06-26T12:14:49;44.87;39.80;58.52;;
37162;Laerm;68342;52.598;13.450;2023-06-26T12:17:14;43.16;38.21;52.88;;
37162;Laerm;68342;52.598;13.450;2023-06-26T12:19:42;42.70;37.78;54.28;;
37162;Laerm;68342;52.598;13.450;2023-06-26T12:22:08;45.31;38.00;58.86;;
37162;Laerm;68342;52.598;13.450;2023-06-26T12:24:38;44.09;37.76;55.72;;
37162;Laerm;68342;52.598;13.450;2023-06-26T12:27:11;45.12;39.00;57.55;;
37162;Laerm;68342;52.598;13.450;2023-06-26T12:29:37;44.92;38.85;59.46;;
37162;Laerm;68342;52.598;13.450;2023-06-26T12:32:03;43.54;38.00;58.57;;
37162;Laerm;68342;52.598;13.450;2023-06-26T12:34:31;42.99;38.09;52.81;;
37162;Laerm;68342;52.598;13.450;2023-06-26T12:37:04;43.97;38.26;65.56;;
37162;Laerm;68342;52.598;13.450;2023-06-26T12:39:29;49.42;39.45;63.06;;
37162;Laerm;68342;52.598;13.450;2023-06-26T12:42:00;45.18;38.99;56.50;;
37162;Laerm;68342;52.598;13.450;2023-06-26T12:46:56;45.19;37.51;58.84;;
37162;Laerm;68342;52.598;13.450;2023-06-26T12:49:28;43.85;36.87;57.81;;
37162;Laerm;68342;52.598;13.450;2023-06-26T12:51:53;47.85;38.95;60.99;;
37162;Laerm;68342;52.598;13.450;2023-06-26T12:54:19;54.84;41.24;71.83;;
37162;Laerm;68342;52.598;13.450;2023-06-26T12:56:44;51.77;39.05;65.14;;
37162;Laerm;68342;52.598;13.450;2023-06-26T12:59:10;53.33;38.18;67.45;;
37162;Laerm;68342;52.598;13.450;2023-06-26T13:01:35;50.60;39.47;72.55;;
37162;Laerm;68342;52.598;13.450;2023-06-26T13:04:00;46.10;40.56;59.13;;
37162;Laerm;68342;52.598;13.450;2023-06-26T13:06:25;46.76;39.84;57.73;;
37162;Laerm;68342;52.598;13.450;2023-06-26T13:08:51;43.97;38.71;57.57;;
37162;Laerm;68342;52.598;13.450;2023-06-26T13:11:16;45.51;38.84;57.14;;
37162;Laerm;68342;52.598;13.450;2023-06-26T13:13:42;48.07;40.40;72.31;;
37162;Laerm;68342;52.598;13.450;2023-06-26T13:16:07;45.15;40.59;55.28;;
37162;Laerm;68342;52.598;13.450;2023-06-26T13:18:32;45.72;40.78;59.41;;
37162;Laerm;68342;52.598;13.450;2023-06-26T13:20:58;45.73;40.49;60.15;;
37162;Laerm;68342;52.598;13.450;2023-06-26T13:23:24;45.33;39.74;59.10;;
37162;Laerm;68342;52.598;13.450;2023-06-26T13:25:49;45.18;40.03;60.18;;
37162;Laerm;68342;52.598;13.450;2023-06-26T13:28:15;53.42;43.01;67.44;;
37162;Laerm;68342;52.598;13.450;2023-06-26T13:30:40;48.83;42.60;70.54;;
37162;Laerm;68342;52.598;13.450;2023-06-26T13:33:06;45.74;40.79;57.23;;
37162;Laerm;68342;52.598;13.450;2023-06-26T13:35:31;49.80;41.81;74.05;;
37162;Laerm;68342;52.598;13.450;2023-06-26T13:37:57;55.08;42.79;72.23;;